sensor_id;sensor_type;location;lat;lon;timestamp;pressure;altitude;pressure_sealevel;temperature;humidity
76378;BME280;65200;49.500;8.654;2023-05-10T00:02:24;99841.50;;;13.70;100.00
76378;BME280;65200;49.500;8.654;2023-05-10T00:04:52;99841.34;;;13.65;100.00
76378;BME280;65200;49.500;8.654;2023-05-10T00:07:18;99846.56;;;13.60;100.00
76378;BME280;65200;49.500;8.654;2023-05-10T00:09:46;99842.66;;;13.56;100.00
76378;BME280;65200;49.500;8.654;2023-05-10T00:12:12;99846.19;;;13.57;100.00
76378;BME280;65200;49.500;8.654;2023-05-10T00:14:39;99849.34;;;13.54;100.00
76378;BME280;65200;49.500;8.654;2023-05-10T00:17:05;99844.16;;;13.52;100.00
76378;BME280;65200;49.500;8.654;2023-05-10T00:19:32;99844.63;;;13.49;100.00
76378;BME280;65200;49.500;8.654;2023-05-10T00:21:58;99852.09;;;13.47;100.00
76378;BME280;65200;49.500;8.654;2023-05-10T00:24:25;99848.78;;;13.45;100.00
76378;BME280;65200;49.500;8.654;2023-05-10T00:26:52;99850.44;;;13.46;100.00
76378;BME280;65200;49.500;8.654;2023-05-10T00:29:19;99850.22;;;13.48;100.00
76378;BME280;65200;49.500;8.654;2023-05-10T00:31:45;99848.72;;;13.52;100.00
76378;BME280;65200;49.500;8.654;2023-05-10T00:34:12;99848.28;;;13.55;100.00
76378;BME280;65200;49.500;8.654;2023-05-10T00:36:38;99855.31;;;13.56;100.00
76378;BME280;65200;49.500;8.654;2023-05-10T00:39:04;99847.31;;;13.49;100.00
76378;BME280;65200;49.500;8.654;2023-05-10T00:41:31;99855.97;;;13.51;100.00
76378;BME280;65200;49.500;8.654;2023-05-10T00:43:59;99855.84;;;13.46;100.00
76378;BME280;65200;49.500;8.654;2023-05-10T00:46:27;99856.25;;;13.43;100.00
76378;BME280;65200;49.500;8.654;2023-05-10T00:48:53;99848.84;;;13.39;100.00
76378;BME280;65200;49.500;8.654;2023-05-10T00:51:20;99853.41;;;13.38;100.00
76378;BME280;65200;49.500;8.654;2023-05-10T00:53:46;99852.38;;;13.39;100.00
76378;BME280;65200;49.500;8.654;2023-05-10T00:56:13;99859.63;;;13.39;100.00
76378;BME280;65200;49.500;8.654;2023-05-10T00:58:39;99854.69;;;13.36;100.00
76378;BME280;65200;49.500;8.654;2023-05-10T01:01:07;99860.06;;;13.36;100.00
76378;BME280;65200;49.500;8.654;2023-05-10T01:03:34;99859.06;;;13.30;100.00
76378;BME280;65200;49.500;8.654;2023-05-10T01:06:02;99855.34;;;13.31;100.00
76378;BME280;65200;49.500;8.654;2023-05-10T01:08:28;99858.03;;;13.31;100.00
76378;BME280;65200;49.500;8.654;2023-05-10T01:10:55;99856.38;;;13.30;100.00
76378;BME280;65200;49.500;8.654;2023-05-10T01:13:30;99859.34;;;13.22;100.00
76378;BME280;65200;49.500;8.654;2023-05-10T01:15:59;99848.97;;;13.26;100.00
76378;BME280;65200;49.500;8.654;2023-05-10T01:18:29;99861.16;;;13.28;100.00
76378;BME280;65200;49.500;8.654;2023-05-10T01:21:04;99858.25;;;13.30;100.00
76378;BME280;65200;49.500;8.654;2023-05-10T01:23:49;99861.97;;;13.29;100.00
76378;BME280;65200;49.500;8.654;2023-05-10T01:29:32;99870.00;;;13.35;100.00
76378;BME280;65200;49.500;8.654;2023-05-10T01:32:21;99863.84;;;13.28;100.00
76378;BME280;65200;49.500;8.654;2023-05-10T01:34:56;99863.41;;;13.31;100.00
76378;BME280;65200;49.500;8.654;2023-05-10T01:37:31;99867.06;;;13.37;100.00
76378;BME280;65200;49.500;8.654;2023-05-10T01:40:02;99869.81;;;13.30;100.00
76378;BME280;65200;49.500;8.654;2023-05-10T01:42:36;99863.91;;;13.22;100.00
76378;BME280;65200;49.500;8.654;2023-05-10T01:45:13;99871.75;;;13.23;100.00
76378;BME280;65200;49.500;8.654;2023-05-10T01:47:43;99867.84;;;13.19;100.00
76378;BME280;65200;49.500;8.654;2023-05-10T01:50:22;99873.84;;;13.21;100.00
76378;BME280;65200;49.500;8.654;2023-05-10T01:52:53;99881.03;;;13.27;100.00
76378;BME280;65200;49.500;8.654;2023-05-10T01:55:23;99886.84;;;13.24;100.00
76378;BME280;65200;49.500;8.654;2023-05-10T01:57:57;99886.63;;;13.26;100.00
76378;BME280;65200;49.500;8.654;2023-05-10T02:00:25;99885.22;;;13.23;100.00
76378;BME280;65200;49.500;8.654;2023-05-10T02:02:55;99887.91;;;13.23;100.00
76378;BME280;65200;49.500;8.654;2023-05-10T02:05:22;99893.50;;;13.22;100.00
76378;BME280;65200;49.500;8.654;2023-05-10T02:07:51;99880.50;;;13.19;100.00
76378;BME280;65200;49.500;8.654;2023-05-10T02:10:18;99888.34;;;13.20;100.00
76378;BME280;65200;49.500;8.654;2023-05-10T02:12:47;99893.72;;;13.20;100.00
76378;BME280;65200;49.500;8.654;2023-05-10T02:15:18;99891.63;;;13.22;100.00
76378;BME280;65200;49.500;8.654;2023-05-10T02:17:46;99894.97;;;13.18;100.00
76378;BME280;65200;49.500;8.654;2023-05-10T02:20:15;99890.44;;;13.18;100.00
76378;BME280;65200;49.500;8.654;2023-05-10T02:22:43;99889.81;;;13.16;100.00
76378;BME280;65200;49.500;8.654;2023-05-10T02:25:11;99890.44;;;13.18;100.00
76378;BME280;65200;49.500;8.654;2023-05-10T02:27:41;99895.38;;;13.21;100.00
76378;BME280;65200;49.500;8.654;2023-05-10T02:30:10;99901.63;;;13.15;100.00
76378;BME280;65200;49.500;8.654;2023-05-10T02:32:38;99895.19;;;13.16;100.00
76378;BME280;65200;49.500;8.654;2023-05-10T02:35:06;99894.63;;;13.08;100.00
76378;BME280;65200;49.500;8.654;2023-05-10T02:37:35;99901.28;;;13.05;100.00
76378;BME280;65200;49.500;8.654;2023-05-10T02:40:03;99903.34;;;13.03;100.00
76378;BME280;65200;49.500;8.654;2023-05-10T02:42:33;99900.66;;;13.03;100.00
76378;BME280;65200;49.500;8.654;2023-05-10T02:45:03;99898.59;;;13.05;100.00
76378;BME280;65200;49.500;8.654;2023-05-10T02:47:31;99902.13;;;13.06;100.00
76378;BME280;65200;49.500;8.654;2023-05-10T02:49:58;99898.94;;;13.15;100.00
76378;BME280;65200;49.500;8.654;2023-05-10T02:52:27;99900.13;;;13.19;100.00
76378;BME280;65200;49.500;8.654;2023-05-10T02:54:58;99897.84;;;13.23;100.00
76378;BME280;65200;49.500;8.654;2023-05-10T02:57:29;99900.75;;;13.21;100.00
76378;BME280;65200;49.500;8.654;2023-05-10T02:59:58;99904.09;;;13.17;100.00
76378;BME280;65200;49.500;8.654;2023-05-10T03:02:25;99899.97;;;13.14;100.00
76378;BME280;65200;49.500;8.654;2023-05-10T03:04:51;99898.53;;;13.12;100.00
76378;BME280;65200;49.500;8.654;2023-05-10T03:07:18;99895.63;;;13.13;100.00
76378;BME280;65200;49.500;8.654;2023-05-10T03:09:46;99906.22;;;13.08;100.00
76378;BME280;65200;49.500;8.654;2023-05-10T03:12:19;99906.63;;;13.12;100.00
76378;BME280;65200;49.500;8.654;2023-05-10T03:14:57;99898.75;;;13.10;100.00
76378;BME280;65200;49.500;8.654;2023-05-10T03:17:30;99899.63;;;13.04;100.00
76378;BME280;65200;49.500;8.654;2023-05-10T03:20:04;99910.78;;;13.08;100.00
76378;BME280;65200;49.500;8.654;2023-05-10T03:22:37;99904.38;;;13.09;100.00
76378;BME280;65200;49.500;8.654;2023-05-10T03:25:06;99907.06;;;13.09;100.00
76378;BME280;65200;49.500;8.654;2023-05-10T03:27:35;99914.28;;;13.08;100.00
76378;BME280;65200;49.500;8.654;2023-05-10T03:30:03;99905.00;;;13.04;100.00
76378;BME280;65200;49.500;8.654;2023-05-10T03:32:31;99915.56;;;13.06;100.00
76378;BME280;65200;49.500;8.654;2023-05-10T03:34:59;99914.06;;;13.10;100.00
76378;BME280;65200;49.500;8.654;2023-05-10T03:37:26;99910.38;;;13.04;100.00
76378;BME280;65200;49.500;8.654;2023-05-10T03:39:52;99904.19;;;13.04;100.00
76378;BME280;65200;49.500;8.654;2023-05-10T03:42:19;99910.81;;;13.01;100.00
76378;BME280;65200;49.500;8.654;2023-05-10T03:44:47;99921.34;;;13.03;100.00
76378;BME280;65200;49.500;8.654;2023-05-10T03:47:14;99918.44;;;12.98;100.00
76378;BME280;65200;49.500;8.654;2023-05-10T03:49:40;99914.97;;;12.97;100.00
76378;BME280;65200;49.500;8.654;2023-05-10T03:52:07;99923.25;;;13.02;100.00
76378;BME280;65200;49.500;8.654;2023-05-10T03:54:33;99926.94;;;13.01;100.00
76378;BME280;65200;49.500;8.654;2023-05-10T03:57:00;99920.13;;;12.99;100.00
76378;BME280;65200;49.500;8.654;2023-05-10T03:59:26;99924.88;;;12.97;100.00
76378;BME280;65200;49.500;8.654;2023-05-10T04:01:54;99918.50;;;12.91;100.00
76378;BME280;65200;49.500;8.654;2023-05-10T04:04:20;99925.75;;;12.91;100.00
76378;BME280;65200;49.500;8.654;2023-05-10T04:06:48;99928.88;;;12.88;100.00
76378;BME280;65200;49.500;8.654;2023-05-10T04:09:14;99935.25;;;12.93;100.00
76378;BME280;65200;49.500;8.654;2023-05-10T04:11:41;99928.66;;;12.89;100.00
76378;BME280;65200;49.500;8.654;2023-05-10T04:14:08;99927.88;;;12.82;100.00
76378;BME280;65200;49.500;8.654;2023-05-10T04:16:34;99935.31;;;12.80;100.00
76378;BME280;65200;49.500;8.654;2023-05-10T04:19:02;99943.59;;;12.79;100.00
76378;BME280;65200;49.500;8.654;2023-05-10T04:21:28;99944.44;;;12.79;100.00
76378;BME280;65200;49.500;8.654;2023-05-10T04:23:55;99949.41;;;12.76;100.00
76378;BME280;65200;49.500;8.654;2023-05-10T04:26:22;99951.84;;;12.84;100.00
76378;BME280;65200;49.500;8.654;2023-05-10T04:28:49;99946.50;;;12.77;100.00
76378;BME280;65200;49.500;8.654;2023-05-10T04:31:15;99954.31;;;12.85;100.00
76378;BME280;65200;49.500;8.654;2023-05-10T04:33:45;99951.22;;;12.88;100.00
76378;BME280;65200;49.500;8.654;2023-05-10T04:36:12;99953.91;;;12.88;100.00
76378;BME280;65200;49.500;8.654;2023-05-10T04:38:39;99961.16;;;12.88;100.00
76378;BME280;65200;49.500;8.654;2023-05-10T04:41:06;99962.97;;;12.94;100.00
76378;BME280;65200;49.500;8.654;2023-05-10T04:43:33;99965.03;;;12.98;100.00
76378;BME280;65200;49.500;8.654;2023-05-10T04:46:00;99965.22;;;13.03;100.00
76378;BME280;65200;49.500;8.654;2023-05-10T04:48:26;99966.28;;;13.02;100.00
76378;BME280;65200;49.500;8.654;2023-05-10T04:50:52;99972.69;;;13.01;100.00
76378;BME280;65200;49.500;8.654;2023-05-10T04:53:21;99974.75;;;13.06;100.00
76378;BME280;65200;49.500;8.654;2023-05-10T04:55:47;99960.47;;;12.99;100.00
76378;BME280;65200;49.500;8.654;2023-05-10T04:58:14;99973.91;;;13.05;100.00
76378;BME280;65200;49.500;8.654;2023-05-10T05:00:40;99969.56;;;13.04;100.00
76378;BME280;65200;49.500;8.654;2023-05-10T05:03:07;99970.78;;;13.08;100.00
76378;BME280;65200;49.500;8.654;2023-05-10T05:05:33;99975.53;;;13.13;100.00
76378;BME280;65200;49.500;8.654;2023-05-10T05:07:59;99977.56;;;13.17;100.00
76378;BME280;65200;49.500;8.654;2023-05-10T05:10:27;99981.03;;;13.24;100.00
76378;BME280;65200;49.500;8.654;2023-05-10T05:12:54;99974.19;;;13.28;100.00
76378;BME280;65200;49.500;8.654;2023-05-10T05:15:20;99979.75;;;13.33;99.82
76378;BME280;65200;49.500;8.654;2023-05-10T05:17:47;99984.69;;;13.36;100.00
76378;BME280;65200;49.500;8.654;2023-05-10T05:20:13;99976.38;;;13.44;99.73
76378;BME280;65200;49.500;8.654;2023-05-10T05:22:40;99984.03;;;13.41;99.64
76378;BME280;65200;49.500;8.654;2023-05-10T05:25:07;99988.16;;;13.43;99.73
76378;BME280;65200;49.500;8.654;2023-05-10T05:27:34;99988.31;;;13.48;100.00
76378;BME280;65200;49.500;8.654;2023-05-10T05:30:01;99983.50;;;13.57;100.00
76378;BME280;65200;49.500;8.654;2023-05-10T05:32:27;99983.03;;;13.66;98.43
76378;BME280;65200;49.500;8.654;2023-05-10T05:34:54;99989.25;;;13.67;99.36
76378;BME280;65200;49.500;8.654;2023-05-10T05:37:20;99986.59;;;13.60;100.00
76378;BME280;65200;49.500;8.654;2023-05-10T05:39:48;99985.75;;;13.60;98.34
76378;BME280;65200;49.500;8.654;2023-05-10T05:42:14;99981.38;;;13.65;99.91
76378;BME280;65200;49.500;8.654;2023-05-10T05:44:44;99994.66;;;13.60;100.00
76378;BME280;65200;49.500;8.654;2023-05-10T05:47:10;100005.28;;;13.55;100.00
76378;BME280;65200;49.500;8.654;2023-05-10T05:49:37;99998.56;;;13.64;100.00
76378;BME280;65200;49.500;8.654;2023-05-10T05:52:04;99999.41;;;13.65;99.88
76378;BME280;65200;49.500;8.654;2023-05-10T05:54:30;100007.97;;;13.80;99.28
76378;BME280;65200;49.500;8.654;2023-05-10T05:56:58;99998.28;;;13.72;96.90
76378;BME280;65200;49.500;8.654;2023-05-10T05:59:25;100005.06;;;13.82;98.29
76378;BME280;65200;49.500;8.654;2023-05-10T06:01:53;100008.59;;;13.82;97.82
76378;BME280;65200;49.500;8.654;2023-05-10T06:04:20;100012.25;;;13.88;97.51
76378;BME280;65200;49.500;8.654;2023-05-10T06:06:47;100013.50;;;13.92;98.05
76378;BME280;65200;49.500;8.654;2023-05-10T06:09:13;100015.00;;;13.81;97.27
76378;BME280;65200;49.500;8.654;2023-05-10T06:11:40;100020.28;;;13.69;97.37
76378;BME280;65200;49.500;8.654;2023-05-10T06:14:06;100029.38;;;13.75;97.72
76378;BME280;65200;49.500;8.654;2023-05-10T06:16:33;100036.13;;;13.59;97.48
76378;BME280;65200;49.500;8.654;2023-05-10T06:19:01;100038.81;;;13.59;97.44
76378;BME280;65200;49.500;8.654;2023-05-10T06:21:27;100033.56;;;13.64;96.14
76378;BME280;65200;49.500;8.654;2023-05-10T06:23:53;100029.72;;;13.85;96.84
76378;BME280;65200;49.500;8.654;2023-05-10T06:26:20;100038.13;;;13.95;94.31
76378;BME280;65200;49.500;8.654;2023-05-10T06:28:47;100037.47;;;14.00;95.25
76378;BME280;65200;49.500;8.654;2023-05-10T06:31:13;100039.31;;;13.99;95.99
76378;BME280;65200;49.500;8.654;2023-05-10T06:33:40;100034.72;;;14.06;94.15
76378;BME280;65200;49.500;8.654;2023-05-10T06:36:08;100027.31;;;14.20;95.19
76378;BME280;65200;49.500;8.654;2023-05-10T06:38:34;100043.63;;;14.31;94.93
76378;BME280;65200;49.500;8.654;2023-05-10T06:41:00;100036.13;;;14.33;94.83
76378;BME280;65200;49.500;8.654;2023-05-10T06:43:27;100030.00;;;14.44;94.38
76378;BME280;65200;49.500;8.654;2023-05-10T06:45:54;100036.47;;;14.43;93.67
76378;BME280;65200;49.500;8.654;2023-05-10T06:48:21;100031.69;;;14.45;93.95
76378;BME280;65200;49.500;8.654;2023-05-10T06:50:47;100028.44;;;14.37;94.07
76378;BME280;65200;49.500;8.654;2023-05-10T06:53:15;100038.16;;;14.38;93.89
76378;BME280;65200;49.500;8.654;2023-05-10T06:55:41;100038.38;;;14.36;94.31
76378;BME280;65200;49.500;8.654;2023-05-10T06:58:08;100043.84;;;14.30;94.28
76378;BME280;65200;49.500;8.654;2023-05-10T07:00:34;100059.44;;;14.28;94.49
76378;BME280;65200;49.500;8.654;2023-05-10T07:03:04;100050.53;;;14.21;95.07
76378;BME280;65200;49.500;8.654;2023-05-10T07:05:30;100051.69;;;14.31;94.15
76378;BME280;65200;49.500;8.654;2023-05-10T07:07:57;100048.84;;;14.26;95.07
76378;BME280;65200;49.500;8.654;2023-05-10T07:10:25;100060.25;;;14.22;94.74
76378;BME280;65200;49.500;8.654;2023-05-10T07:12:51;100060.25;;;14.28;96.15
76378;BME280;65200;49.500;8.654;2023-05-10T07:15:18;100060.19;;;14.35;96.14
76378;BME280;65200;49.500;8.654;2023-05-10T07:17:44;100057.50;;;14.53;94.65
76378;BME280;65200;49.500;8.654;2023-05-10T07:20:12;100062.00;;;14.59;94.38
76378;BME280;65200;49.500;8.654;2023-05-10T07:22:39;100056.41;;;14.78;94.23
76378;BME280;65200;49.500;8.654;2023-05-10T07:25:06;100059.25;;;14.83;93.03
76378;BME280;65200;49.500;8.654;2023-05-10T07:27:34;100064.00;;;14.88;92.85
76378;BME280;65200;49.500;8.654;2023-05-10T07:30:00;100059.03;;;14.85;90.08
76378;BME280;65200;49.500;8.654;2023-05-10T07:32:27;100051.53;;;15.05;90.51
76378;BME280;65200;49.500;8.654;2023-05-10T07:34:53;100051.19;;;15.31;88.74
76378;BME280;65200;49.500;8.654;2023-05-10T07:37:20;100062.44;;;15.46;89.21
76378;BME280;65200;49.500;8.654;2023-05-10T07:39:46;100060.81;;;15.57;88.65
76378;BME280;65200;49.500;8.654;2023-05-10T07:42:12;100054.31;;;15.76;87.72
76378;BME280;65200;49.500;8.654;2023-05-10T07:44:40;100060.44;;;15.53;88.67
76378;BME280;65200;49.500;8.654;2023-05-10T07:47:07;100063.50;;;15.86;86.75
76378;BME280;65200;49.500;8.654;2023-05-10T07:49:33;100058.94;;;15.87;86.96
76378;BME280;65200;49.500;8.654;2023-05-10T07:52:01;100064.59;;;16.08;84.97
76378;BME280;65200;49.500;8.654;2023-05-10T07:54:28;100067.50;;;15.84;86.18
76378;BME280;65200;49.500;8.654;2023-05-10T07:56:55;100066.59;;;16.01;85.36
76378;BME280;65200;49.500;8.654;2023-05-10T07:59:21;100063.09;;;16.24;85.95
76378;BME280;65200;49.500;8.654;2023-05-10T08:01:49;100075.34;;;16.50;84.58
76378;BME280;65200;49.500;8.654;2023-05-10T08:04:15;100076.34;;;16.02;84.86
76378;BME280;65200;49.500;8.654;2023-05-10T08:06:43;100073.53;;;16.09;84.65
76378;BME280;65200;49.500;8.654;2023-05-10T08:09:09;100072.59;;;16.03;85.96
76378;BME280;65200;49.500;8.654;2023-05-10T08:11:36;100080.31;;;15.88;86.10
76378;BME280;65200;49.500;8.654;2023-05-10T08:14:02;100078.50;;;15.71;85.67
76378;BME280;65200;49.500;8.654;2023-05-10T08:16:29;100075.94;;;15.76;86.58
76378;BME280;65200;49.500;8.654;2023-05-10T08:18:56;100074.47;;;15.62;86.62
76378;BME280;65200;49.500;8.654;2023-05-10T08:21:23;100075.34;;;15.74;86.77
76378;BME280;65200;49.500;8.654;2023-05-10T08:23:49;100081.59;;;15.86;87.82
76378;BME280;65200;49.500;8.654;2023-05-10T08:26:16;100074.97;;;15.70;85.56
76378;BME280;65200;49.500;8.654;2023-05-10T08:28:42;100072.31;;;15.52;85.42
76378;BME280;65200;49.500;8.654;2023-05-10T08:31:08;100069.91;;;15.62;85.58
76378;BME280;65200;49.500;8.654;2023-05-10T08:33:35;100071.25;;;15.53;85.39
76378;BME280;65200;49.500;8.654;2023-05-10T08:36:03;100077.03;;;15.57;85.29
76378;BME280;65200;49.500;8.654;2023-05-10T08:38:29;100085.31;;;15.26;85.88
76378;BME280;65200;49.500;8.654;2023-05-10T08:40:56;100079.69;;;15.45;84.83
76378;BME280;65200;49.500;8.654;2023-05-10T08:43:26;100081.53;;;15.63;86.01
76378;BME280;65200;49.500;8.654;2023-05-10T08:45:54;100081.88;;;15.66;85.11
76378;BME280;65200;49.500;8.654;2023-05-10T08:48:22;100096.06;;;15.91;83.17
76378;BME280;65200;49.500;8.654;2023-05-10T08:50:52;100091.84;;;15.95;80.61
76378;BME280;65200;49.500;8.654;2023-05-10T08:53:21;100093.88;;;16.11;79.05
76378;BME280;65200;49.500;8.654;2023-05-10T08:55:49;100088.59;;;16.39;78.49
76378;BME280;65200;49.500;8.654;2023-05-10T08:58:16;100086.91;;;16.68;78.38
76378;BME280;65200;49.500;8.654;2023-05-10T09:00:45;100085.44;;;16.89;76.31
76378;BME280;65200;49.500;8.654;2023-05-10T09:03:11;100088.75;;;16.79;76.77
76378;BME280;65200;49.500;8.654;2023-05-10T09:05:38;100099.59;;;16.56;77.87
76378;BME280;65200;49.500;8.654;2023-05-10T09:08:06;100092.50;;;16.43;78.04
76378;BME280;65200;49.500;8.654;2023-05-10T09:10:35;100095.31;;;16.25;80.86
76378;BME280;65200;49.500;8.654;2023-05-10T09:13:03;100104.63;;;15.88;81.59
76378;BME280;65200;49.500;8.654;2023-05-10T09:15:30;100094.53;;;15.54;80.30
76378;BME280;65200;49.500;8.654;2023-05-10T09:17:57;100098.81;;;15.26;83.15
76378;BME280;65200;49.500;8.654;2023-05-10T09:20:26;100101.28;;;15.27;85.47
76378;BME280;65200;49.500;8.654;2023-05-10T09:22:53;100115.84;;;15.08;84.15
76378;BME280;65200;49.500;8.654;2023-05-10T09:25:19;100109.63;;;15.07;85.04
76378;BME280;65200;49.500;8.654;2023-05-10T09:27:48;100112.84;;;15.16;84.00
76378;BME280;65200;49.500;8.654;2023-05-10T09:30:16;100111.50;;;15.25;83.51
76378;BME280;65200;49.500;8.654;2023-05-10T09:32:44;100108.56;;;15.27;83.57
76378;BME280;65200;49.500;8.654;2023-05-10T09:35:12;100109.31;;;15.34;83.82
76378;BME280;65200;49.500;8.654;2023-05-10T09:37:40;100122.00;;;15.51;85.44
76378;BME280;65200;49.500;8.654;2023-05-10T09:40:11;100122.91;;;15.45;84.46
76378;BME280;65200;49.500;8.654;2023-05-10T09:42:38;100136.59;;;15.07;87.02
76378;BME280;65200;49.500;8.654;2023-05-10T09:45:07;100134.91;;;15.13;87.28
76378;BME280;65200;49.500;8.654;2023-05-10T09:47:34;100131.09;;;15.02;89.00
76378;BME280;65200;49.500;8.654;2023-05-10T09:50:01;100131.81;;;15.09;88.84
76378;BME280;65200;49.500;8.654;2023-05-10T09:52:30;100129.66;;;15.18;85.64
76378;BME280;65200;49.500;8.654;2023-05-10T09:54:56;100131.22;;;15.44;85.86
76378;BME280;65200;49.500;8.654;2023-05-10T09:57:24;100132.59;;;15.82;89.23
76378;BME280;65200;49.500;8.654;2023-05-10T09:59:51;100130.50;;;15.66;84.56
76378;BME280;65200;49.500;8.654;2023-05-10T10:02:20;100136.09;;;15.53;84.91
76378;BME280;65200;49.500;8.654;2023-05-10T10:04:49;100128.66;;;15.49;86.72
76378;BME280;65200;49.500;8.654;2023-05-10T10:07:22;100137.22;;;15.28;85.62
76378;BME280;65200;49.500;8.654;2023-05-10T10:09:49;100138.19;;;15.15;86.57
76378;BME280;65200;49.500;8.654;2023-05-10T10:12:17;100142.09;;;15.19;84.76
76378;BME280;65200;49.500;8.654;2023-05-10T10:14:45;100140.91;;;15.15;82.14
76378;BME280;65200;49.500;8.654;2023-05-10T10:17:12;100140.66;;;14.98;83.25
76378;BME280;65200;49.500;8.654;2023-05-10T10:19:41;100141.78;;;14.91;80.73
76378;BME280;65200;49.500;8.654;2023-05-10T10:22:08;100145.53;;;14.90;83.13
76378;BME280;65200;49.500;8.654;2023-05-10T10:24:35;100158.25;;;14.65;83.88
76378;BME280;65200;49.500;8.654;2023-05-10T10:27:09;100158.78;;;14.49;87.76
76378;BME280;65200;49.500;8.654;2023-05-10T10:29:43;100164.88;;;14.38;89.91
76378;BME280;65200;49.500;8.654;2023-05-10T10:32:22;100164.34;;;14.29;88.55
76378;BME280;65200;49.500;8.654;2023-05-10T10:34:54;100158.72;;;14.31;88.63
76378;BME280;65200;49.500;8.654;2023-05-10T10:37:21;100156.56;;;14.39;87.25
76378;BME280;65200;49.500;8.654;2023-05-10T10:39:48;100157.34;;;14.46;88.91
76378;BME280;65200;49.500;8.654;2023-05-10T10:42:43;100159.44;;;14.44;88.71
76378;BME280;65200;49.500;8.654;2023-05-10T10:45:13;100158.06;;;14.60;84.55
76378;BME280;65200;49.500;8.654;2023-05-10T10:47:39;100172.75;;;14.39;84.33
76378;BME280;65200;49.500;8.654;2023-05-10T10:50:09;100147.56;;;14.21;82.62
76378;BME280;65200;49.500;8.654;2023-05-10T10:52:38;100163.91;;;14.32;84.03
76378;BME280;65200;49.500;8.654;2023-05-10T10:55:06;100159.06;;;14.41;81.91
76378;BME280;65200;49.500;8.654;2023-05-10T10:57:43;100157.97;;;14.48;81.32
76378;BME280;65200;49.500;8.654;2023-05-10T11:00:24;100154.25;;;14.67;80.15
76378;BME280;65200;49.500;8.654;2023-05-10T11:02:53;100148.91;;;14.85;80.79
76378;BME280;65200;49.500;8.654;2023-05-10T11:05:34;100147.06;;;15.04;80.02
76378;BME280;65200;49.500;8.654;2023-05-10T11:08:08;100147.44;;;15.44;79.01
76378;BME280;65200;49.500;8.654;2023-05-10T11:10:35;100157.34;;;15.79;79.94
76378;BME280;65200;49.500;8.654;2023-05-10T11:13:04;100153.28;;;16.18;76.90
76378;BME280;65200;49.500;8.654;2023-05-10T11:15:33;100147.66;;;16.42;74.64
76378;BME280;65200;49.500;8.654;2023-05-10T11:18:16;100155.25;;;16.64;71.70
76378;BME280;65200;49.500;8.654;2023-05-10T11:20:51;100150.91;;;16.74;68.57
76378;BME280;65200;49.500;8.654;2023-05-10T11:23:18;100156.44;;;17.02;70.09
76378;BME280;65200;49.500;8.654;2023-05-10T11:25:46;100152.88;;;16.90;66.42
76378;BME280;65200;49.500;8.654;2023-05-10T11:28:13;100147.91;;;17.33;67.16
76378;BME280;65200;49.500;8.654;2023-05-10T11:30:42;100145.13;;;18.13;66.32
76378;BME280;65200;49.500;8.654;2023-05-10T11:33:15;100145.13;;;18.13;64.38
76378;BME280;65200;49.500;8.654;2023-05-10T11:35:41;100142.78;;;17.88;65.66
76378;BME280;65200;49.500;8.654;2023-05-10T11:38:11;100140.94;;;17.49;67.98
76378;BME280;65200;49.500;8.654;2023-05-10T11:40:38;100141.06;;;17.19;68.62
76378;BME280;65200;49.500;8.654;2023-05-10T11:43:06;100153.47;;;16.69;66.41
76378;BME280;65200;49.500;8.654;2023-05-10T11:45:32;100153.44;;;16.46;70.37
76378;BME280;65200;49.500;8.654;2023-05-10T11:48:00;100162.91;;;16.25;70.74
76378;BME280;65200;49.500;8.654;2023-05-10T11:53:03;100163.47;;;16.69;69.27
76378;BME280;65200;49.500;8.654;2023-05-10T11:55:31;100159.72;;;16.93;69.98
76378;BME280;65200;49.500;8.654;2023-05-10T11:58:01;100159.84;;;16.75;64.17
76378;BME280;65200;49.500;8.654;2023-05-10T12:00:28;100162.06;;;17.01;63.06
76378;BME280;65200;49.500;8.654;2023-05-10T12:02:56;100164.19;;;16.87;60.60
76378;BME280;65200;49.500;8.654;2023-05-10T12:05:23;100145.84;;;17.01;60.09
76378;BME280;65200;49.500;8.654;2023-05-10T12:07:50;100164.28;;;17.27;60.41
76378;BME280;65200;49.500;8.654;2023-05-10T12:10:24;100164.53;;;17.25;60.92
76378;BME280;65200;49.500;8.654;2023-05-10T12:12:53;100167.53;;;17.52;60.87
76378;BME280;65200;49.500;8.654;2023-05-10T12:15:21;100166.88;;;17.73;62.33
76378;BME280;65200;49.500;8.654;2023-05-10T12:17:48;100166.50;;;18.09;61.22
76378;BME280;65200;49.500;8.654;2023-05-10T12:20:20;100171.03;;;18.20;58.58
76378;BME280;65200;49.500;8.654;2023-05-10T12:22:49;100170.34;;;18.41;56.93
76378;BME280;65200;49.500;8.654;2023-05-10T12:25:16;100161.47;;;18.79;58.34
76378;BME280;65200;49.500;8.654;2023-05-10T12:27:50;100156.84;;;18.96;56.61
76378;BME280;65200;49.500;8.654;2023-05-10T12:30:23;100159.38;;;18.36;59.31
76378;BME280;65200;49.500;8.654;2023-05-10T12:32:50;100164.44;;;18.00;60.62
76378;BME280;65200;49.500;8.654;2023-05-10T12:35:16;100159.13;;;18.38;61.24
76378;BME280;65200;49.500;8.654;2023-05-10T12:37:47;100167.31;;;18.71;57.92
76378;BME280;65200;49.500;8.654;2023-05-10T12:40:14;100162.91;;;19.03;58.16
76378;BME280;65200;49.500;8.654;2023-05-10T12:42:41;100165.59;;;18.81;59.50
76378;BME280;65200;49.500;8.654;2023-05-10T12:45:10;100172.59;;;18.16;60.47
76378;BME280;65200;49.500;8.654;2023-05-10T12:47:38;100180.75;;;17.88;62.68
76378;BME280;65200;49.500;8.654;2023-05-10T12:50:05;100174.44;;;17.99;63.87
76378;BME280;65200;49.500;8.654;2023-05-10T12:52:32;100175.00;;;18.29;63.48
76378;BME280;65200;49.500;8.654;2023-05-10T12:54:59;100173.66;;;18.43;62.12
76378;BME280;65200;49.500;8.654;2023-05-10T12:57:28;100175.78;;;18.41;62.20
76378;BME280;65200;49.500;8.654;2023-05-10T12:59:55;100180.66;;;18.39;61.89
76378;BME280;65200;49.500;8.654;2023-05-10T13:02:22;100170.38;;;18.13;62.50